createdAt,value
2023-03-28T00:02:03.991Z,4.53
2023-03-28T00:07:09.130Z,4.61
2023-03-28T00:12:12.586Z,4.49
2023-03-28T00:17:18.120Z,4.47
2023-03-28T00:22:23.051Z,4.54
2023-03-28T00:27:27.499Z,4.50
2023-03-28T00:32:32.132Z,4.53
2023-03-28T00:37:37.830Z,4.56
2023-03-28T00:42:43.679Z,4.57
2023-03-28T00:47:51.689Z,4.61
2023-03-28T00:53:02.417Z,4.63
2023-03-28T00:58:09.549Z,4.72
2023-03-28T01:03:16.237Z,4.77
2023-03-28T01:08:23.274Z,4.76
2023-03-28T01:13:29.528Z,4.65
2023-03-28T01:18:35.071Z,4.65
2023-03-28T01:24:11.473Z,4.56
2023-03-28T01:29:49.237Z,4.57
2023-03-28T01:35:12.400Z,4.61
2023-03-28T01:40:37.298Z,4.74
2023-03-28T01:45:52.775Z,4.80
2023-03-28T01:51:02.455Z,4.88
2023-03-28T01:56:15.827Z,4.93
2023-03-28T02:01:24.762Z,4.90
2023-03-28T02:06:29.654Z,4.83
2023-03-28T02:11:36.180Z,4.71
2023-03-28T02:16:42.934Z,4.67
2023-03-28T02:21:52.348Z,4.55
2023-03-28T02:26:57.472Z,4.55
2023-03-28T02:32:00.881Z,4.69
2023-03-28T02:37:16.241Z,4.81
2023-03-28T02:43:02.679Z,4.87
2023-03-28T02:48:18.179Z,4.78
2023-03-28T02:53:28.469Z,4.63
2023-03-28T02:58:38.810Z,4.47
2023-03-28T03:03:43.942Z,4.34
2023-03-28T03:08:47.333Z,4.25
2023-03-28T03:13:50.797Z,4.16
2023-03-28T03:18:55.141Z,4.11
2023-03-28T03:23:58.564Z,4.04
2023-03-28T03:29:01.928Z,3.98
2023-03-28T03:34:07.663Z,3.91
2023-03-28T03:39:10.940Z,3.89
2023-03-28T03:44:14.465Z,3.90
2023-03-28T03:49:18.979Z,3.86
2023-03-28T03:54:22.098Z,3.78
2023-03-28T03:59:25.841Z,3.76
2023-03-28T04:04:30.816Z,3.73
2023-03-28T04:09:34.070Z,3.80
2023-03-28T04:14:37.371Z,3.94
2023-03-28T04:19:42.156Z,4.02
2023-03-28T04:24:45.860Z,4.09
2023-03-28T04:29:49.412Z,4.07
2023-03-28T04:34:54.070Z,4.02
2023-03-28T04:40:01.972Z,3.88
2023-03-28T04:45:08.658Z,3.94
2023-03-28T04:50:14.300Z,4.04
2023-03-28T04:55:17.630Z,4.11
2023-03-28T05:00:22.964Z,4.13
2023-03-28T05:05:28.125Z,4.20
2023-03-28T05:10:31.304Z,4.10
2023-03-28T05:15:35.128Z,4.04
2023-03-28T05:20:39.823Z,3.99
2023-03-28T05:25:46.777Z,4.03
2023-03-28T05:30:50.928Z,4.00
2023-03-28T05:35:55.732Z,4.01
2023-03-28T05:41:02.083Z,4.16
2023-03-28T05:46:06.179Z,4.33
2023-03-28T05:51:17.186Z,4.30
2023-03-28T05:56:20.446Z,4.32
2023-03-28T06:01:27.895Z,4.39
2023-03-28T06:06:34.604Z,4.60
2023-03-28T06:11:38.074Z,4.76
2023-03-28T06:16:41.514Z,4.88
2023-03-28T06:21:46.276Z,6.11
2023-03-28T06:26:49.796Z,7.20
2023-03-28T06:31:53.059Z,7.02
2023-03-28T06:36:57.901Z,9.23
2023-03-28T06:42:03.666Z,10.56
2023-03-28T06:47:07.253Z,10.80
2023-03-28T06:52:12.159Z,11.86
2023-03-28T06:57:15.933Z,11.22
2023-03-28T07:02:19.344Z,11.59
2023-03-28T07:07:24.160Z,11.64
2023-03-28T07:12:27.545Z,11.96
2023-03-28T07:17:30.918Z,13.16
2023-03-28T07:22:35.473Z,12.07
2023-03-28T07:27:38.746Z,12.08
2023-03-28T07:32:52.407Z,12.29
2023-03-28T07:38:04.595Z,13.35
2023-03-28T07:43:07.851Z,13.26
2023-03-28T07:48:11.269Z,14.02
2023-03-28T07:53:16.292Z,14.20
2023-03-28T07:58:19.437Z,15.78
2023-03-28T08:03:23.844Z,16.65
2023-03-28T08:08:28.659Z,18.25
2023-03-28T08:13:31.772Z,19.58
2023-03-28T08:18:35.028Z,17.97
2023-03-28T08:23:39.737Z,18.33
2023-03-28T08:28:43.121Z,17.15
2023-03-28T08:33:48.720Z,16.99
2023-03-28T08:38:54.523Z,16.73
2023-03-28T08:44:13.118Z,15.85
2023-03-28T08:49:19.470Z,15.32
2023-03-28T08:54:31.898Z,15.32
2023-03-28T08:59:44.517Z,14.46
2023-03-28T09:04:48.085Z,14.45
2023-03-28T09:10:03.672Z,14.55
2023-03-28T09:15:39.428Z,14.56
2023-03-28T09:20:49.837Z,14.71
2023-03-28T09:26:01.736Z,14.38
2023-03-28T09:31:09.347Z,13.89
2023-03-28T09:36:15.195Z,13.64
2023-03-28T09:41:26.392Z,13.61
2023-03-28T09:46:33.018Z,13.21
2023-03-28T09:51:36.417Z,12.71
2023-03-28T09:56:43.252Z,13.03
2023-03-28T10:01:49.326Z,13.07
2023-03-28T10:06:52.726Z,13.48
2023-03-28T10:11:59.959Z,13.46
2023-03-28T10:17:06.004Z,13.07
2023-03-28T10:22:13.682Z,13.21
2023-03-28T10:27:24.075Z,13.33
2023-03-28T10:32:30.409Z,13.27
2023-03-28T10:37:35.226Z,12.88
2023-03-28T10:42:45.356Z,12.51
2023-03-28T10:47:50.871Z,12.19
2023-03-28T10:53:02.121Z,12.28
2023-03-28T10:58:16.951Z,12.66
2023-03-28T11:03:36.243Z,12.95
2023-03-28T11:08:51.521Z,13.31
2023-03-28T11:14:05.607Z,13.65
2023-03-28T11:19:17.078Z,13.77
2023-03-28T11:24:29.686Z,13.81
2023-03-28T11:29:43.452Z,13.99
2023-03-28T11:34:59.207Z,13.71
2023-03-28T11:40:11.999Z,13.61
2023-03-28T11:45:46.796Z,13.39
2023-03-28T11:51:02.827Z,13.36
2023-03-28T11:56:14.278Z,13.11
2023-03-28T12:01:22.930Z,13.24
2023-03-28T12:06:31.664Z,13.33
2023-03-28T12:11:39.223Z,13.51
2023-03-28T12:16:49.448Z,13.78
2023-03-28T12:22:01.015Z,13.78
2023-03-28T12:27:14.808Z,13.31
2023-03-28T12:32:33.409Z,13.10
2023-03-28T12:37:43.368Z,12.67
2023-03-28T12:42:47.967Z,12.32
2023-03-28T12:47:56.102Z,12.07
2023-03-28T12:53:00.520Z,11.77
2023-03-28T12:58:23.323Z,11.57
2023-03-28T13:03:38.470Z,11.29
2023-03-28T13:09:00.553Z,11.02
2023-03-28T13:14:15.841Z,10.93
2023-03-28T13:19:20.784Z,10.91
2023-03-28T13:24:33.556Z,10.94
2023-03-28T13:29:51.089Z,10.99
2023-03-28T13:35:00.367Z,10.96
2023-03-28T13:40:07.337Z,10.94
2023-03-28T13:45:21.698Z,11.03
2023-03-28T13:50:30.632Z,11.04
2023-03-28T13:55:34.215Z,10.96
2023-03-28T14:00:37.676Z,10.75
2023-03-28T14:05:46.408Z,10.61
2023-03-28T14:10:51.157Z,10.69
2023-03-28T14:15:56.073Z,10.63
2023-03-28T14:21:01.814Z,10.56
2023-03-28T14:26:08.946Z,10.54
2023-03-28T14:31:14.918Z,10.73
2023-03-28T14:36:19.505Z,10.96
2023-03-28T14:41:27.624Z,11.04
2023-03-28T14:46:34.649Z,11.09
2023-03-28T14:51:43.800Z,11.15
2023-03-28T14:56:48.052Z,11.22
2023-03-28T15:01:52.012Z,11.16
2023-03-28T15:06:58.008Z,11.12
2023-03-28T15:12:06.772Z,11.08
2023-03-28T15:17:19.305Z,10.90
2023-03-28T15:22:28.348Z,10.67
2023-03-28T15:27:33.877Z,10.75
2023-03-28T15:32:37.568Z,10.84
2023-03-28T15:37:46.213Z,10.91
2023-03-28T15:42:52.510Z,10.91
2023-03-28T15:47:57.397Z,10.82
2023-03-28T15:53:06.104Z,10.85
2023-03-28T15:58:14.112Z,10.81
2023-03-28T16:03:37.882Z,10.78
2023-03-28T16:08:45.225Z,10.66
2023-03-28T16:13:49.878Z,10.65
2023-03-28T16:18:53.403Z,10.53
2023-03-28T16:23:58.305Z,10.38
2023-03-28T16:29:03.573Z,10.27
2023-03-28T16:34:09.327Z,10.12
2023-03-28T16:39:14.845Z,9.93
2023-03-28T16:44:18.232Z,9.83
2023-03-28T16:49:21.402Z,9.72
2023-03-28T16:54:26.233Z,9.64
2023-03-28T16:59:29.719Z,9.54
2023-03-28T17:04:38.328Z,9.43
2023-03-28T17:09:44.132Z,9.31
2023-03-28T17:14:47.333Z,9.19
2023-03-28T17:19:51.084Z,9.10
2023-03-28T17:24:57.384Z,9.01
2023-03-28T17:30:01.408Z,8.88
2023-03-28T17:35:05.235Z,8.74
2023-03-28T17:40:14.722Z,8.59
2023-03-28T17:45:18.056Z,8.47
2023-03-28T17:50:21.620Z,8.34
2023-03-28T17:55:26.851Z,8.23
2023-03-28T18:00:31.480Z,8.11
2023-03-28T18:05:35.338Z,7.97
2023-03-28T18:10:41.475Z,7.89
2023-03-28T18:15:44.682Z,7.80
2023-03-28T18:20:48.780Z,7.74
2023-03-28T18:25:54.291Z,7.66
2023-03-28T18:31:07.446Z,7.54
2023-03-28T18:36:12.613Z,7.47
2023-03-28T18:41:17.722Z,7.43
2023-03-28T18:46:21.124Z,7.36
2023-03-28T18:51:24.448Z,7.30
2023-03-28T18:56:33.002Z,7.26
2023-03-28T19:01:41.153Z,7.20
2023-03-28T19:06:46.846Z,7.14
2023-03-28T19:11:53.107Z,7.13
2023-03-28T19:16:56.456Z,7.09
2023-03-28T19:21:59.724Z,7.04
2023-03-28T19:27:05.330Z,6.99
2023-03-28T19:32:08.860Z,6.95
2023-03-28T19:37:12.831Z,6.95
2023-03-28T19:42:20.449Z,6.96
2023-03-28T19:47:23.714Z,7.00
2023-03-28T19:52:27.172Z,7.03
2023-03-28T19:57:31.812Z,7.04
2023-03-28T20:02:37.492Z,7.04
2023-03-28T20:07:41.159Z,6.99
2023-03-28T20:12:45.864Z,6.94
2023-03-28T20:17:49.623Z,6.93
2023-03-28T20:22:53.121Z,6.89
2023-03-28T20:27:59.459Z,6.90
2023-03-28T20:33:03.212Z,6.89
2023-03-28T20:38:06.891Z,6.89
2023-03-28T20:43:11.938Z,6.84
2023-03-28T20:48:16.786Z,6.78
2023-03-28T20:53:20.229Z,6.67
2023-03-28T20:58:24.984Z,6.59
2023-03-28T21:03:39.449Z,6.52
2023-03-28T21:08:45.867Z,6.44
2023-03-28T21:13:50.553Z,6.40
2023-03-28T21:18:54.380Z,6.35
2023-03-28T21:23:58.172Z,6.38
2023-03-28T21:29:02.987Z,6.33
2023-03-28T21:34:06.245Z,6.29
2023-03-28T21:39:09.468Z,6.29
2023-03-28T21:44:14.206Z,6.28
2023-03-28T21:49:18.257Z,6.30
2023-03-28T21:54:21.506Z,6.27
2023-03-28T21:59:27.516Z,6.29
2023-03-28T22:04:31.032Z,6.31
2023-03-28T22:09:36.281Z,6.36
2023-03-28T22:14:41.190Z,6.36
2023-03-28T22:19:44.560Z,6.39
2023-03-28T22:24:47.856Z,6.43
2023-03-28T22:29:52.555Z,6.46
2023-03-28T22:34:56.190Z,6.46
2023-03-28T22:39:59.508Z,6.47
2023-03-28T22:45:04.630Z,6.40
2023-03-28T22:50:11.486Z,6.41
2023-03-28T22:55:14.735Z,6.38
2023-03-28T23:00:22.985Z,6.36
2023-03-28T23:05:26.840Z,6.31
2023-03-28T23:10:32.705Z,6.29
2023-03-28T23:15:37.334Z,6.28
2023-03-28T23:20:40.367Z,6.27
2023-03-28T23:25:43.476Z,6.21
2023-03-28T23:30:48.259Z,6.20
2023-03-28T23:35:51.452Z,6.18
2023-03-28T23:40:54.880Z,6.12
2023-03-28T23:45:59.342Z,6.06
2023-03-28T23:51:02.630Z,6.03
2023-03-28T23:56:06.820Z,6.01
